createdAt,value
2023-02-27T00:01:15.662Z,8.28
2023-02-27T00:03:46.785Z,8.28
2023-02-27T00:06:18.162Z,8.21
2023-02-27T00:08:47.160Z,8.36
2023-02-27T00:11:16.257Z,8.25
2023-02-27T00:13:47.060Z,8.28
2023-02-27T00:16:19.358Z,8.31
2023-02-27T00:18:50.259Z,8.32
2023-02-27T00:21:19.301Z,8.17
2023-02-27T00:23:48.042Z,8.04
2023-02-27T00:26:17.027Z,7.96
2023-02-27T00:28:46.636Z,8.00
2023-02-27T00:31:15.309Z,7.95
2023-02-27T00:33:43.970Z,7.95
2023-02-27T00:36:12.626Z,7.98
2023-02-27T00:38:43.387Z,7.98
2023-02-27T00:41:12.039Z,7.94
2023-02-27T00:43:40.711Z,7.82
2023-02-27T00:46:10.646Z,7.74
2023-02-27T00:48:39.216Z,7.76
2023-02-27T00:51:13.913Z,7.68
2023-02-27T00:53:43.175Z,7.59
2023-02-27T00:56:14.465Z,7.73
2023-02-27T00:58:43.331Z,7.82
2023-02-27T01:01:11.958Z,7.77
2023-02-27T01:03:41.110Z,7.88
2023-02-27T01:06:10.199Z,7.83
2023-02-27T01:08:38.918Z,7.74
2023-02-27T01:11:08.935Z,7.80
2023-02-27T01:13:38.964Z,7.81
2023-02-27T01:16:08.958Z,7.71
2023-02-27T01:18:37.537Z,7.75
2023-02-27T01:21:06.537Z,7.67
2023-02-27T01:23:36.003Z,7.78
2023-02-27T01:26:05.173Z,7.81
2023-02-27T01:28:35.888Z,7.74
2023-02-27T01:31:04.702Z,7.73
2023-02-27T01:33:34.628Z,7.73
2023-02-27T01:36:03.274Z,7.79
2023-02-27T01:38:32.229Z,7.78
2023-02-27T01:41:10.822Z,7.65
2023-02-27T01:44:01.201Z,7.71
2023-02-27T01:46:32.849Z,7.69
2023-02-27T01:49:07.657Z,7.74
2023-02-27T01:51:42.646Z,7.92
2023-02-27T01:54:11.750Z,7.97
2023-02-27T01:56:41.476Z,8.00
2023-02-27T01:59:10.881Z,8.19
2023-02-27T02:01:39.423Z,8.28
2023-02-27T02:04:32.992Z,8.22
2023-02-27T02:07:13.047Z,8.37
2023-02-27T02:09:47.457Z,8.18
2023-02-27T02:12:16.662Z,8.35
2023-02-27T02:14:48.774Z,8.21
2023-02-27T02:17:54.917Z,8.29
2023-02-27T02:21:00.115Z,8.33
2023-02-27T02:23:44.673Z,8.28
2023-02-27T02:26:33.222Z,8.20
2023-02-27T02:29:12.795Z,8.25
2023-02-27T02:31:42.760Z,8.20
2023-02-27T02:34:51.214Z,8.09
2023-02-27T02:37:38.043Z,8.01
2023-02-27T02:40:25.328Z,8.00
2023-02-27T02:43:14.002Z,8.14
2023-02-27T02:46:08.578Z,8.06
2023-02-27T02:48:37.674Z,8.04
2023-02-27T02:51:24.185Z,7.98
2023-02-27T02:54:15.021Z,7.90
2023-02-27T02:56:54.483Z,7.91
2023-02-27T03:57:07.814Z,7.74
2023-02-27T03:59:39.391Z,7.98
2023-02-27T04:02:09.605Z,7.78
2023-02-27T04:04:39.960Z,7.88
2023-02-27T04:07:37.098Z,7.90
2023-02-27T04:10:33.541Z,7.77
2023-02-27T04:13:16.040Z,7.83
2023-02-27T04:16:24.581Z,7.87
2023-02-27T04:19:35.698Z,7.93
2023-02-27T04:22:19.362Z,7.85
2023-02-27T04:25:07.703Z,7.73
2023-02-27T04:27:46.418Z,7.86
2023-02-27T04:30:25.405Z,7.80
2023-02-27T04:33:10.122Z,7.78
2023-02-27T04:35:42.548Z,7.73
2023-02-27T04:38:21.313Z,7.96
2023-02-27T04:40:55.965Z,8.01
2023-02-27T04:43:28.330Z,7.86
2023-02-27T04:46:03.702Z,7.81
2023-02-27T04:48:37.680Z,8.06
2023-02-27T04:51:20.713Z,7.85
2023-02-27T04:53:52.164Z,7.67
2023-02-27T04:56:26.815Z,7.81
2023-02-27T04:59:06.614Z,7.86
2023-02-27T05:01:40.413Z,7.96
2023-02-27T05:04:13.419Z,7.95
2023-02-27T05:06:45.363Z,7.93
2023-02-27T05:09:28.239Z,7.94
2023-02-27T05:12:18.082Z,7.87
2023-02-27T05:14:51.357Z,7.72
2023-02-27T05:17:25.149Z,7.66
2023-02-27T05:19:55.859Z,7.58
2023-02-27T05:22:30.638Z,7.69
2023-02-27T05:25:34.996Z,7.64
2023-02-27T05:28:21.770Z,7.84
2023-02-27T05:30:59.092Z,7.69
2023-02-27T05:33:46.887Z,7.52
2023-02-27T05:36:26.074Z,7.52
2023-02-27T05:39:00.882Z,7.63
2023-02-27T05:41:34.034Z,7.63
2023-02-27T05:44:10.839Z,7.55
2023-02-27T05:46:49.906Z,7.58
2023-02-27T05:50:01.820Z,7.57
2023-02-27T05:52:33.234Z,7.57
2023-02-27T05:55:31.607Z,7.52
2023-02-27T05:58:17.112Z,7.53
2023-02-27T06:01:10.167Z,7.44
2023-02-27T06:03:41.442Z,7.56
2023-02-27T06:06:15.606Z,7.50
2023-02-27T06:08:45.695Z,7.58
2023-02-27T06:11:18.989Z,7.59
2023-02-27T06:13:52.449Z,7.63
2023-02-27T06:16:23.397Z,7.65
2023-02-27T06:18:54.027Z,7.59
2023-02-27T06:21:24.874Z,7.58
2023-02-27T06:23:58.063Z,7.68
2023-02-27T06:26:29.933Z,7.75
2023-02-27T06:29:01.023Z,7.46
2023-02-27T06:31:34.257Z,7.53
2023-02-27T06:34:04.215Z,7.57
2023-02-27T06:36:35.372Z,7.53
2023-02-27T06:39:08.258Z,7.60
2023-02-27T06:41:43.238Z,7.56
2023-02-27T06:44:14.778Z,7.57
2023-02-27T06:46:45.438Z,7.73
2023-02-27T06:49:15.736Z,7.85
2023-02-27T06:51:45.461Z,7.75
2023-02-27T06:54:15.378Z,7.84
2023-02-27T06:56:49.136Z,7.68
2023-02-27T06:59:19.368Z,7.76
2023-02-27T07:01:51.109Z,7.58
2023-02-27T07:04:22.153Z,7.59
2023-02-27T07:07:33.013Z,7.57
2023-02-27T07:09:42.927Z,7.62
2023-02-27T07:12:13.476Z,7.59
2023-02-27T07:15:00.939Z,7.65
2023-02-27T07:17:32.225Z,7.55
2023-02-27T07:20:03.757Z,7.49
2023-02-27T07:22:35.964Z,7.51
2023-02-27T07:25:08.139Z,7.53
2023-02-27T07:27:40.450Z,7.34
2023-02-27T07:30:11.109Z,7.35
2023-02-27T07:32:41.841Z,7.53
2023-02-27T07:35:13.452Z,7.32
2023-02-27T07:37:44.063Z,7.31
2023-02-27T07:40:14.154Z,7.20
2023-02-27T07:42:44.676Z,7.31
2023-02-27T07:45:15.422Z,7.25
2023-02-27T07:48:01.083Z,7.24
2023-02-27T07:50:44.023Z,7.14
2023-02-27T07:53:29.998Z,7.32
2023-02-27T07:55:57.900Z,7.12
2023-02-27T07:58:41.893Z,7.14
2023-02-27T08:01:45.216Z,7.06
2023-02-27T08:04:16.346Z,7.07
2023-02-27T08:06:46.402Z,7.21
2023-02-27T08:09:16.794Z,7.24
2023-02-27T08:11:48.929Z,7.14
2023-02-27T08:14:20.128Z,7.21
2023-02-27T08:16:56.892Z,7.26
2023-02-27T08:19:27.503Z,7.07
2023-02-27T08:21:57.844Z,7.13
2023-02-27T08:24:29.268Z,7.25
2023-02-27T08:27:00.226Z,7.40
2023-02-27T08:29:31.783Z,7.35
2023-02-27T08:32:05.588Z,7.42
2023-02-27T08:34:38.158Z,7.41
2023-02-27T08:37:10.620Z,7.35
2023-02-27T08:39:42.902Z,7.00
2023-02-27T08:42:14.209Z,6.92
2023-02-27T08:44:43.867Z,7.06
2023-02-27T08:47:14.999Z,6.98
2023-02-27T08:49:46.281Z,7.04
2023-02-27T08:52:17.581Z,7.11
2023-02-27T08:54:49.979Z,7.00
2023-02-27T08:57:19.723Z,6.81
2023-02-27T08:59:50.317Z,6.85
2023-02-27T09:02:20.308Z,6.71
2023-02-27T09:04:52.034Z,6.61
2023-02-27T09:07:22.298Z,6.60
2023-02-27T09:09:52.105Z,6.39
2023-02-27T09:12:22.662Z,6.37
2023-02-27T09:14:52.812Z,6.19
2023-02-27T09:17:22.682Z,6.35
2023-02-27T09:19:57.301Z,6.33
2023-02-27T09:22:28.132Z,6.37
2023-02-27T09:24:59.827Z,6.27
2023-02-27T09:27:30.962Z,6.17
2023-02-27T09:30:06.961Z,6.46
2023-02-27T09:32:37.432Z,6.63
2023-02-27T09:35:10.443Z,6.57
2023-02-27T09:37:41.337Z,6.67
2023-02-27T09:40:31.977Z,6.56
2023-02-27T09:43:04.039Z,6.61
2023-02-27T09:45:39.754Z,6.65
2023-02-27T09:48:33.569Z,6.59
2023-02-27T09:51:03.570Z,6.80
2023-02-27T09:53:43.623Z,6.60
2023-02-27T09:56:39.578Z,6.70
2023-02-27T10:00:21.469Z,6.51
2023-02-27T10:03:44.821Z,6.66
2023-02-27T10:06:27.354Z,6.75
2023-02-27T10:09:03.097Z,6.65
2023-02-27T10:11:53.517Z,6.70
2023-02-27T10:15:17.711Z,6.57
2023-02-27T10:18:13.004Z,6.49
2023-02-27T10:21:09.079Z,6.55
2023-02-27T10:24:08.018Z,6.60
2023-02-27T10:26:41.905Z,6.52
2023-02-27T10:29:25.291Z,6.73
2023-02-27T10:32:30.136Z,6.72
2023-02-27T10:38:01.361Z,6.91
2023-02-27T10:40:31.868Z,6.88
2023-02-27T10:43:06.102Z,6.86
2023-02-27T10:45:38.797Z,6.80
2023-02-27T10:48:17.896Z,6.84
2023-02-27T10:50:52.998Z,6.92
2023-02-27T10:53:28.086Z,6.90
2023-02-27T10:56:02.633Z,6.89
2023-02-27T10:58:34.866Z,6.96
2023-02-27T11:01:06.858Z,6.77
2023-02-27T11:03:41.695Z,6.82
2023-02-27T11:06:30.866Z,6.96
2023-02-27T11:09:31.672Z,6.80
2023-02-27T11:12:28.072Z,6.78
2023-02-27T11:15:04.134Z,6.88
2023-02-27T11:17:34.953Z,6.83
2023-02-27T11:20:06.944Z,6.82
2023-02-27T11:22:36.795Z,6.62
2023-02-27T11:25:23.325Z,6.57
2023-02-27T11:27:53.485Z,6.65
2023-02-27T11:30:32.484Z,6.73
2023-02-27T11:33:02.315Z,6.71
2023-02-27T11:35:38.352Z,7.03
2023-02-27T11:38:30.813Z,7.04
2023-02-27T11:41:06.436Z,7.05
2023-02-27T11:43:50.789Z,6.98
2023-02-27T11:46:47.006Z,6.97
2023-02-27T11:49:26.618Z,7.05
2023-02-27T11:52:13.592Z,7.06
2023-02-27T11:54:44.238Z,7.05
2023-02-27T11:57:29.178Z,7.02
2023-02-27T12:00:08.486Z,6.96
2023-02-27T12:03:09.511Z,7.10
2023-02-27T12:05:44.360Z,7.15
2023-02-27T12:08:19.570Z,7.09
2023-02-27T12:11:12.420Z,7.03
2023-02-27T12:13:48.886Z,7.05
2023-02-27T12:16:52.483Z,7.02
2023-02-27T12:19:34.379Z,7.06
2023-02-27T12:22:23.850Z,7.15
2023-02-27T12:25:08.890Z,7.06
2023-02-27T12:27:56.483Z,7.06
2023-02-27T12:30:28.054Z,6.80
2023-02-27T12:33:14.124Z,6.96
2023-02-27T12:35:46.199Z,7.00
2023-02-27T12:38:15.975Z,6.99
2023-02-27T12:41:07.847Z,7.16
2023-02-27T12:44:15.697Z,7.07
2023-02-27T12:46:47.125Z,7.16
2023-02-27T12:49:45.198Z,7.17
2023-02-27T12:52:43.803Z,7.15
2023-02-27T12:55:28.630Z,7.17
2023-02-27T12:58:15.310Z,7.09
2023-02-27T13:00:55.463Z,7.02
2023-02-27T13:03:51.759Z,7.08
2023-02-27T13:06:40.610Z,7.02
2023-02-27T13:09:31.956Z,7.02
2023-02-27T13:12:12.253Z,7.17
2023-02-27T13:15:01.631Z,7.06
2023-02-27T13:17:49.610Z,7.03
2023-02-27T13:20:29.146Z,6.94
2023-02-27T13:23:21.732Z,6.94
2023-02-27T13:25:52.272Z,6.96
2023-02-27T13:28:28.364Z,7.01
2023-02-27T13:31:15.494Z,7.04
2023-02-27T13:34:09.025Z,7.02
2023-02-27T13:36:41.606Z,6.98
2023-02-27T13:39:44.708Z,6.94
2023-02-27T13:42:28.218Z,6.90
2023-02-27T13:45:05.710Z,7.04
2023-02-27T13:47:40.539Z,6.96
2023-02-27T13:50:19.899Z,7.04
2023-02-27T13:52:51.468Z,7.06
2023-02-27T13:55:37.841Z,7.13
2023-02-27T13:58:08.924Z,7.08
2023-02-27T14:00:38.858Z,7.01
2023-02-27T14:03:18.117Z,7.13
2023-02-27T14:05:49.842Z,7.09
2023-02-27T14:08:48.192Z,7.17
2023-02-27T14:11:27.716Z,7.09
2023-02-27T14:13:59.842Z,7.15
2023-02-27T14:16:42.195Z,7.21
2023-02-27T14:19:32.457Z,7.18
2023-02-27T14:22:04.667Z,7.35
2023-02-27T14:25:01.174Z,7.24
2023-02-27T14:28:03.259Z,7.27
2023-02-27T14:30:42.790Z,7.36
2023-02-27T14:33:16.759Z,7.33
2023-02-27T14:35:51.036Z,7.40
2023-02-27T14:38:21.509Z,7.25
2023-02-27T14:41:09.415Z,7.18
2023-02-27T14:43:45.931Z,7.24
2023-02-27T14:46:24.701Z,7.22
2023-02-27T14:49:03.612Z,7.27
2023-02-27T14:51:37.674Z,7.38
2023-02-27T14:54:15.150Z,7.36
2023-02-27T14:57:00.212Z,7.40
2023-02-27T14:59:35.516Z,7.45
2023-02-27T15:02:05.569Z,7.49
2023-02-27T15:04:35.687Z,7.43
2023-02-27T15:07:06.234Z,7.51
2023-02-27T15:09:53.301Z,7.62
2023-02-27T15:12:26.294Z,7.49
2023-02-27T15:15:01.361Z,7.64
2023-02-27T15:17:41.073Z,7.64
2023-02-27T15:20:32.373Z,7.67
2023-02-27T15:23:25.279Z,7.67
2023-02-27T15:25:59.410Z,7.67
2023-02-27T15:28:39.374Z,7.56
2023-02-27T15:31:11.383Z,7.59
2023-02-27T15:33:44.552Z,7.56
2023-02-27T15:36:25.084Z,7.55
2023-02-27T15:39:20.758Z,7.57
2023-02-27T15:41:55.383Z,7.68
2023-02-27T15:45:01.358Z,7.50
2023-02-27T15:47:35.633Z,7.58
2023-02-27T15:50:12.323Z,7.50
2023-02-27T15:53:07.233Z,7.45
2023-02-27T15:55:44.074Z,7.47
2023-02-27T15:58:38.774Z,7.65
2023-02-27T16:01:11.213Z,7.59
2023-02-27T16:03:46.390Z,7.45
2023-02-27T16:06:30.504Z,7.58
2023-02-27T16:09:09.348Z,7.70
2023-02-27T16:11:40.225Z,7.71
2023-02-27T16:14:45.424Z,7.59
2023-02-27T16:17:32.841Z,7.58
2023-02-27T16:23:35.909Z,7.68
2023-02-27T16:26:24.812Z,7.63
2023-02-27T16:28:56.611Z,7.66
2023-02-27T16:31:39.185Z,7.61
2023-02-27T16:34:20.718Z,7.72
2023-02-27T16:36:55.852Z,7.73
2023-02-27T16:39:27.138Z,7.64
2023-02-27T16:41:59.379Z,7.87
2023-02-27T16:44:30.969Z,7.63
2023-02-27T16:47:05.312Z,7.62
2023-02-27T16:49:41.487Z,7.61
2023-02-27T16:52:14.795Z,7.56
2023-02-27T16:54:45.390Z,7.58
2023-02-27T16:57:15.711Z,7.59
2023-02-27T16:59:45.924Z,7.61
2023-02-27T17:02:17.826Z,7.55
2023-02-27T17:04:50.774Z,7.74
2023-02-27T17:07:21.715Z,7.41
2023-02-27T17:09:52.114Z,7.62
2023-02-27T17:12:23.529Z,7.63
2023-02-27T17:14:54.578Z,7.65
2023-02-27T17:17:25.670Z,7.58
2023-02-27T17:19:55.842Z,7.68
2023-02-27T17:22:39.044Z,7.82
2023-02-27T17:25:11.137Z,7.62
2023-02-27T17:27:44.737Z,7.72
2023-02-27T17:30:29.535Z,7.75
2023-02-27T17:33:01.104Z,7.70
2023-02-27T17:35:34.218Z,7.80
2023-02-27T17:38:07.551Z,7.69
2023-02-27T17:40:39.965Z,7.60
2023-02-27T17:43:10.369Z,7.62
2023-02-27T17:45:39.984Z,7.49
2023-02-27T17:48:14.426Z,7.68
2023-02-27T17:50:45.961Z,7.65
2023-02-27T17:53:16.356Z,7.61
2023-02-27T17:55:46.256Z,7.62
2023-02-27T17:58:19.981Z,7.69
2023-02-27T18:00:49.778Z,7.75
2023-02-27T18:03:20.294Z,7.74
2023-02-27T18:05:53.791Z,7.65
2023-02-27T18:08:27.179Z,7.58
2023-02-27T18:10:56.942Z,7.72
2023-02-27T18:13:28.415Z,7.78
2023-02-27T18:16:00.512Z,7.79
2023-02-27T18:18:37.053Z,7.83
2023-02-27T18:21:21.395Z,7.87
2023-02-27T18:23:52.526Z,7.80
2023-02-27T18:26:30.595Z,7.78
2023-02-27T18:29:04.771Z,7.80
2023-02-27T18:31:38.523Z,7.88
2023-02-27T18:34:09.210Z,7.76
2023-02-27T18:36:39.773Z,7.74
2023-02-27T18:39:10.117Z,7.85
2023-02-27T18:41:44.162Z,7.75
2023-02-27T18:44:14.222Z,7.81
2023-02-27T18:46:45.766Z,7.83
2023-02-27T18:49:20.521Z,7.82
2023-02-27T18:51:50.361Z,7.52
2023-02-27T18:54:28.531Z,7.75
2023-02-27T18:57:07.165Z,7.88
2023-02-27T18:59:48.097Z,7.54
2023-02-27T19:02:20.258Z,7.65
2023-02-27T19:04:59.085Z,7.61
2023-02-27T19:07:36.001Z,7.73
2023-02-27T19:10:11.309Z,7.85
2023-02-27T19:12:41.345Z,8.06
2023-02-27T19:15:24.145Z,7.97
2023-02-27T19:17:57.775Z,7.95
2023-02-27T19:20:27.602Z,7.90
2023-02-27T19:23:13.440Z,8.00
2023-02-27T19:25:49.628Z,8.05
2023-02-27T19:28:19.046Z,8.07
2023-02-27T19:30:48.756Z,7.93
2023-02-27T19:33:18.520Z,7.88
2023-02-27T19:35:48.433Z,7.88
2023-02-27T19:38:19.522Z,7.97
2023-02-27T19:40:51.898Z,8.02
2023-02-27T19:43:21.645Z,8.04
2023-02-27T19:45:58.802Z,8.07
2023-02-27T19:48:43.967Z,8.01
2023-02-27T19:51:14.409Z,8.04
2023-02-27T19:53:46.944Z,8.07
2023-02-27T19:56:24.539Z,7.96
2023-02-27T19:58:55.374Z,7.99
2023-02-27T20:01:27.031Z,8.05
2023-02-27T20:04:08.649Z,7.98
2023-02-27T20:06:42.522Z,7.96
2023-02-27T20:09:14.940Z,7.98
2023-02-27T20:11:53.215Z,7.94
2023-02-27T20:14:26.076Z,7.92
2023-02-27T20:16:55.627Z,7.69
2023-02-27T20:19:26.863Z,7.97
2023-02-27T20:21:58.594Z,8.05
2023-02-27T20:24:27.912Z,8.12
2023-02-27T20:26:59.787Z,7.94
2023-02-27T20:29:29.286Z,7.73
2023-02-27T20:32:01.095Z,7.80
2023-02-27T20:34:31.728Z,7.72
2023-02-27T20:37:05.085Z,7.71
2023-02-27T20:39:35.586Z,7.63
2023-02-27T20:42:08.992Z,7.65
2023-02-27T20:44:41.263Z,7.68
2023-02-27T20:47:15.513Z,7.60
2023-02-27T20:49:49.316Z,7.51
2023-02-27T20:52:20.003Z,7.67
2023-02-27T20:54:52.508Z,7.71
2023-02-27T20:57:23.439Z,7.67
2023-02-27T20:59:52.652Z,7.59
2023-02-27T21:02:25.900Z,7.83
2023-02-27T21:04:55.107Z,7.80
2023-02-27T21:07:33.645Z,7.87
2023-02-27T21:10:06.063Z,7.82
2023-02-27T21:12:48.223Z,7.73
2023-02-27T21:15:29.298Z,7.75
2023-02-27T21:18:04.943Z,7.71
2023-02-27T21:20:36.403Z,7.80
2023-02-27T21:23:06.182Z,7.76
2023-02-27T21:25:45.320Z,7.84
2023-02-27T21:28:20.814Z,7.75
2023-02-27T21:30:55.199Z,7.59
2023-02-27T21:33:25.375Z,7.69
2023-02-27T21:35:54.330Z,7.68
2023-02-27T21:38:23.631Z,7.84
2023-02-27T21:40:54.943Z,7.89
2023-02-27T21:43:25.688Z,7.79
2023-02-27T21:46:05.049Z,7.73
2023-02-27T21:48:35.433Z,7.69
2023-02-27T21:51:06.058Z,7.78
2023-02-27T21:53:37.748Z,7.73
2023-02-27T21:56:09.251Z,7.73
2023-02-27T21:58:40.734Z,7.56
2023-02-27T22:01:17.226Z,7.65
2023-02-27T22:03:51.781Z,7.69
2023-02-27T22:06:22.554Z,7.65
2023-02-27T22:08:56.893Z,7.71
2023-02-27T22:11:28.232Z,7.72
2023-02-27T22:13:57.760Z,7.69
2023-02-27T22:16:28.785Z,7.50
2023-02-27T22:26:48.289Z,7.44
2023-02-27T22:29:20.571Z,7.59
2023-02-27T22:31:50.141Z,7.68
2023-02-27T22:34:21.202Z,7.47
2023-02-27T22:36:53.008Z,7.46
2023-02-27T22:39:29.267Z,7.54
2023-02-27T22:41:58.668Z,7.49
2023-02-27T22:44:30.187Z,7.45
2023-02-27T22:47:01.150Z,7.37
2023-02-27T22:49:30.323Z,7.42
2023-02-27T22:52:05.235Z,7.29
2023-02-27T22:54:34.695Z,7.38
2023-02-27T22:57:06.758Z,7.41
2023-02-27T22:59:39.266Z,7.54
2023-02-27T23:02:08.953Z,7.70
2023-02-27T23:04:38.532Z,7.70
2023-02-27T23:07:08.216Z,7.81
2023-02-27T23:09:37.540Z,7.86
2023-02-27T23:12:07.710Z,7.78
2023-02-27T23:14:41.713Z,7.70
2023-02-27T23:17:10.637Z,7.76
2023-02-27T23:19:41.276Z,7.76
2023-02-27T23:22:11.419Z,7.70
2023-02-27T23:24:42.333Z,7.77
2023-02-27T23:27:25.349Z,7.71
2023-02-27T23:29:56.118Z,7.59
2023-02-27T23:32:28.638Z,7.79
2023-02-27T23:35:01.714Z,7.67
2023-02-27T23:37:32.455Z,7.84
2023-02-27T23:40:01.803Z,7.85
2023-02-27T23:42:50.975Z,7.90
2023-02-27T23:45:24.393Z,8.00
2023-02-27T23:47:56.308Z,8.00
2023-02-27T23:50:28.739Z,7.88
2023-02-27T23:53:01.319Z,7.70
2023-02-27T23:55:33.076Z,7.69
2023-02-27T23:58:09.817Z,7.74
